Startpagina
METAR-TAF:

METAR-TAF

Vliegvelden :

Wasilla, Alaska, Verenigde Staten

breedte: 61-34-19N, lengte: 149-32-26W, hoogte: 106 m

Actueel weer

Dit bericht is 56 minuten geleden gemaakt, om 22:56 UTC
Wind 5 kt uit het oosten
Temperatuur 8°C
Vochtigheid 49%
Druk 1003 hPa
Zicht: 16.1 km
Gebroken wolken op 11000 ft

METAR: PAWS 212256Z AUTO 08005KT 10SM BKN110 08/M02 A2962 RMK AO2 SLP047 T00781017

Tijdstip: 15:52 (23:52 UTC)


TAF: ontbreekt

Waarnemingen en weersverwachtingen van meer dan 4000 vliegvelden (METAR en TAF).

De beschikbare stations zijn de gele en rode punten op de kaart.

Ga met uw muis naar het station om de naam te zien.

Klik dan om waarnemingen en weersverwachtingen te zien.

kaart wijzigen: klik op de groene knoppen met een zwart kruis om in te zoomen, op de groene knop met een streepje om uit te zoomen of op de groene pijlen voor aangrenzende kaarten.


METAR-TAF: